Remada, Tunisia
Current Conditions -  °F | °C
As of 4:00 PM on Friday 31 Oct 2014 (Local Time) from DTTR Reporting Station
Scattered Clouds Scattered Clouds  
Wind Chill: 79°   Ceiling: Unl
Heat Index: 79°   Visibility: 6mi
Dew Point: 45°   Wind: 9mph
Humidity: 30%   Direction: 30°NNE
Pressure: 30.09"   Gusts: NA
Location:  32.32°N, 10.4°E
Report Text: DTTR 311500Z 03008KT 9999 SCT026 26/07 Q1019
Loading
Personal Weather Stations






























Interactive Weather Map
Tropical Storm Tracking
New forecast layout! Learn more

10-Day Weather Forecast

Advertisements
Track Severe Weather on mobile